Dobrodošli na spletni strani vremenske postaje Senovo. Vse informacije so informativnega značaja, saj vremenska postaja ni del državne mreže meteoroloških postaj. AKTUALNIH OBVESTIL NI.


Posebna pozornost v zvezi z vremenskimi dogajanji ni potrebna.    Posebna pozornost v zvezi z vremenskimi dogajanji ni potrebna.

Pogled proti Armezu več informacij Pogled proti Armezu


Bohor več informacij Bohor


Radar strel več informacij blitzortung!


Radar padavin več informacij rain snow radar


Obiščite še:

Template documentation
and downloads

And another site



Weather Underground, zgodovina - Tekstovno

Dnevni povzetek za Maj 14, 2017 Enote:  Metrično    Angleško   Obe
« Predhodni Dan
Naslednji Dan »
Dnevni Tedenski Mesečni Letni Po meri
  Višja: Nižja: Povprečje:
Temperatura: -17.8 °C -12.4 °C -8.2 °C
Točka rosišča: -17.8 °C -12.7 °C -10.7 °C
Vlažnost: Humidity % 44 % 77 %
Hitrost vetra: 0 km/h 0 km/h 2.6 km/h
Sunki vetra: 0 km/h - -
Veter:- - SSE
Zračni tlak: 0 hPa 34371.3 hPa -
Padavine: 7.62 mm    
Historical Graphs
 
 
Tabelarni podarki za Maj 14, 2017
Čas Temperatura Točka rosišča Zračni tlak Veter Hitrost vetra Sunki vetra Vlažnost Intenziteta padavin (urna)
-17.8 °C -17.8 °C 0 hPa Calm     Humidity % 0 mm
00:00 -11.6 °C -12 °C 34405.1 hPa Calm     95 % 0 mm
00:05 -11.6 °C -12.1 °C 34405.1 hPa Calm     95 % 0 mm
00:10 -11.7 °C -12.1 °C 34405.1 hPa Calm     95 % 0 mm
00:15 -11.7 °C -12.2 °C 34371.3 hPa Calm     95 % 0 mm
00:20 -11.8 °C -12.2 °C 34371.3 hPa Calm     95 % 0 mm
00:25 -11.7 °C -12.2 °C 34371.3 hPa Calm     95 % 0 mm
00:30 -11.7 °C -12.2 °C 34405.1 hPa Calm     95 % 0 mm
00:35 -11.7 °C -12.2 °C 34405.1 hPa Calm     95 % 0 mm
00:40 -11.7 °C -12.2 °C 34405.1 hPa Calm     95 % 0 mm
00:45 -11.7 °C -12.1 °C 34405.1 hPa Calm     96 % 0 mm
00:50 -11.7 °C -12.1 °C 34405.1 hPa Calm     96 % 0 mm
00:55 -11.7 °C -12.1 °C 34405.1 hPa Calm     95 % 0 mm
01:00 -11.7 °C -12.1 °C 34405.1 hPa Calm     96 % 0 mm
01:05 -11.7 °C -12.1 °C 34405.1 hPa Calm     96 % 0 mm
01:10 -11.7 °C -12.1 °C 34405.1 hPa Calm     96 % 0 mm
01:15 -11.7 °C -12.1 °C 34405.1 hPa Calm     96 % 0 mm
01:20 -11.7 °C -12.1 °C 34405.1 hPa Calm     96 % 0 mm
01:25 -11.8 °C -12.1 °C 34405.1 hPa Calm     96 % 0 mm
01:30 -11.8 °C -12.1 °C 34371.3 hPa Calm     96 % 0 mm
01:35 -11.8 °C -12.2 °C 34371.3 hPa Calm     96 % 0 mm
01:40 -11.9 °C -12.2 °C 34371.3 hPa Calm     96 % 0 mm
01:45 -11.9 °C -12.2 °C 34405.1 hPa Calm     96 % 0 mm
01:50 -11.9 °C -12.3 °C 34405.1 hPa Calm     96 % 0 mm
01:55 -12 °C -12.3 °C 34405.1 hPa Calm     96 % 0 mm
02:00 -12.1 °C -12.4 °C 34405.1 hPa Calm     96 % 0 mm
02:05 -12.1 °C -12.4 °C 34405.1 hPa Calm     96 % 0 mm
02:10 -12.2 °C -12.5 °C 34405.1 hPa Calm     96 % 0 mm
02:15 -12.2 °C -12.5 °C 34371.3 hPa Calm     96 % 0 mm
02:20 -12.2 °C -12.5 °C 34371.3 hPa Calm     96 % 0 mm
02:25 -12.2 °C -12.6 °C 34371.3 hPa Calm     96 % 0 mm
02:30 -12.2 °C -12.6 °C 34371.3 hPa Calm     96 % 0 mm
02:35 -12.3 °C -12.6 °C 34371.3 hPa Calm     96 % 0 mm
02:40 -12.3 °C -12.6 °C 34371.3 hPa Calm     96 % 0 mm
02:45 -12.3 °C -12.6 °C 34405.1 hPa Calm     96 % 0 mm
02:50 -12.3 °C -12.6 °C 34405.1 hPa Calm     96 % 0 mm
02:55 -12.3 °C -12.6 °C 34405.1 hPa Calm     96 % 0 mm
03:00 -12.3 °C -12.6 °C 34405.1 hPa Calm     96 % 0 mm
03:05 -12.3 °C -12.6 °C 34405.1 hPa Calm     97 % 0 mm
03:10 -12.3 °C -12.6 °C 34405.1 hPa Calm     97 % 0 mm
03:15 -12.3 °C -12.6 °C 34405.1 hPa Calm     97 % 0 mm
03:20 -12.2 °C -12.4 °C 34405.1 hPa Calm     97 % 0 mm
03:25 -12.2 °C -12.4 °C 34405.1 hPa Calm     97 % 0 mm
03:30 -12.3 °C -12.6 °C 34405.1 hPa Calm     97 % 0 mm
03:35 -12.3 °C -12.6 °C 34405.1 hPa Calm     97 % 0 mm
03:40 -12.3 °C -12.6 °C 34405.1 hPa Calm     97 % 0 mm
03:45 -12.3 °C -12.6 °C 34405.1 hPa Calm     97 % 0 mm
03:50 -12.3 °C -12.6 °C 34405.1 hPa Calm     97 % 0 mm
03:55 -12.3 °C -12.6 °C 34405.1 hPa Calm     97 % 0 mm
04:00 -12.3 °C -12.6 °C 34428.8 hPa Calm     97 % 0 mm
04:05 -12.3 °C -12.6 °C 34428.8 hPa Calm     97 % 0 mm
04:10 -12.4 °C -12.7 °C 34428.8 hPa West 1 km/h 5.6 km/h 97 % 0 mm
04:15 -12.4 °C -12.7 °C 34428.8 hPa West 1 km/h 5.6 km/h 97 % 0 mm
04:20 -12.4 °C -12.7 °C 34428.8 hPa Calm     97 % 0 mm
04:25 -12.4 °C -12.7 °C 34428.8 hPa Calm     97 % 0 mm
04:30 -12.3 °C -12.6 °C 34428.8 hPa Calm     97 % 0 mm
04:35 -12.3 °C -12.6 °C 34428.8 hPa Calm     97 % 0 mm
04:40 -12.3 °C -12.6 °C 34428.8 hPa WSW 1 km/h 5.6 km/h 97 % 0 mm
04:45 -12.4 °C -12.7 °C 34428.8 hPa WSW 1.3 km/h 5.6 km/h 97 % 0 mm
04:50 -12.3 °C -12.6 °C 34428.8 hPa North 0.3 km/h   97 % 0 mm
04:55 -12.4 °C -12.7 °C 34428.8 hPa Calm     97 % 0 mm
05:00 -12.4 °C -12.7 °C 34428.8 hPa Calm     97 % 0 mm
05:05 -12.4 °C -12.7 °C 34428.8 hPa Calm     97 % 0 mm
05:10 -12.4 °C -12.7 °C 34428.8 hPa Calm     97 % 0 mm
05:15 -12.3 °C -12.6 °C 34428.8 hPa Calm     97 % 0 mm
05:20 -12.4 °C -12.7 °C 34428.8 hPa Calm     97 % 0 mm
05:25 -12.4 °C -12.7 °C 34428.8 hPa Calm     97 % 0 mm
05:30 -12.4 °C -12.7 °C 34428.8 hPa Calm     97 % 0 mm
05:35 -12.3 °C -12.6 °C 34428.8 hPa Calm     97 % 0 mm
05:40 -12.3 °C -12.6 °C 34428.8 hPa Calm     97 % 0 mm
05:45 -12.3 °C -12.4 °C 34428.8 hPa Calm   2.3 km/h 98 % 0 mm
05:50 -12.2 °C -12.4 °C 34428.8 hPa Calm   2.3 km/h 97 % 0 mm
05:55 -12.2 °C -12.4 °C 34428.8 hPa Calm     97 % 0 mm
06:00 -12.1 °C -12.2 °C 34428.8 hPa Calm     98 % 0 mm
06:05 -11.9 °C -12.1 °C 34428.8 hPa Calm   2.3 km/h 98 % 0 mm
06:10 -11.8 °C -12 °C 34428.8 hPa Calm   2.3 km/h 98 % 0 mm
06:15 -11.8 °C -11.9 °C 34428.8 hPa Calm     98 % 0 mm
06:20 -11.7 °C -11.9 °C 34428.8 hPa Calm     98 % 0 mm
06:25 -11.7 °C -11.8 °C 34428.8 hPa Calm     98 % 0 mm
06:30 -11.6 °C -11.8 °C 34428.8 hPa Calm     98 % 0 mm
06:35 -11.6 °C -11.7 °C 34428.8 hPa Calm     98 % 0 mm
06:41 -11.5 °C -11.7 °C 34428.8 hPa Calm     98 % 0 mm
06:46 -11.4 °C -11.6 °C 34476.3 hPa Calm     98 % 0 mm
06:51 -11.4 °C -11.6 °C 34476.3 hPa Calm     98 % 0 mm
06:56 -11.3 °C -11.5 °C 34476.3 hPa Calm     98 % 0 mm
07:01 -11.3 °C -11.4 °C 34476.3 hPa Calm     98 % 0 mm
07:06 -11.2 °C -11.4 °C 34476.3 hPa Calm     98 % 0 mm
07:11 -11.2 °C -11.3 °C 34476.3 hPa Calm     98 % 0 mm
07:16 -11.1 °C -11.2 °C 34476.3 hPa Calm     98 % 0 mm
07:21 -10.9 °C -11.1 °C 34476.3 hPa ESE 1.3 km/h 6.9 km/h 98 % 0 mm
07:26 -10.7 °C -10.9 °C 34476.3 hPa ESE 1.3 km/h 6.9 km/h 98 % 0 mm
07:31 -10.6 °C -10.8 °C 34476.3 hPa ENE 0.5 km/h 6.4 km/h 97 % 0 mm
07:36 -10.4 °C -10.7 °C 34476.3 hPa ENE 0.5 km/h 6.4 km/h 97 % 0 mm
07:41 -10.2 °C -10.3 °C 34476.3 hPa Calm     98 % 0 mm
07:46 -10 °C -10.2 °C 34476.3 hPa Calm     97 % 0 mm
07:51 -9.9 °C -10.2 °C 34476.3 hPa East 0.3 km/h 6.4 km/h 97 % 0 mm
07:56 -9.8 °C -10.1 °C 34476.3 hPa East 0.5 km/h 6.4 km/h 97 % 0 mm
08:01 -9.7 °C -9.9 °C 34476.3 hPa Calm     97 % 0 mm
08:06 -9.7 °C -9.9 °C 34476.3 hPa Calm     97 % 0 mm
08:11 -9.7 °C -9.9 °C 34476.3 hPa Calm     97 % 0 mm
08:16 -9.6 °C -9.8 °C 34428.8 hPa Calm     97 % 0 mm
08:21 -9.5 °C -9.8 °C 34428.8 hPa Calm     96 % 0 mm
08:26 -9.4 °C -9.8 °C 34428.8 hPa Calm     96 % 0 mm
08:31 -9.3 °C -9.6 °C 34476.3 hPa SE 0.8 km/h 3.4 km/h 96 % 0 mm
08:36 -9.2 °C -9.6 °C 34476.3 hPa SE 0.8 km/h 3.4 km/h 95 % 0 mm
08:41 -9.1 °C -9.5 °C 34476.3 hPa ENE 0.8 km/h 6.9 km/h 95 % 0 mm
08:46 -8.9 °C -9.4 °C 34476.3 hPa ENE 0.5 km/h 6.9 km/h 95 % 0 mm
08:51 -8.8 °C -9.4 °C 34476.3 hPa Calm     94 % 0 mm
08:56 -8.8 °C -9.4 °C 34476.3 hPa Calm   2.3 km/h 93 % 0 mm
09:01 -8.6 °C -9.2 °C 34476.3 hPa Calm   2.3 km/h 93 % 0 mm
09:06 -8.6 °C -9.2 °C 34476.3 hPa NE 1 km/h 5.1 km/h 93 % 0 mm
09:11 -8.4 °C -9.1 °C 34476.3 hPa NE 1.3 km/h 5.1 km/h 93 % 0 mm
09:16 -8.3 °C -9.1 °C 34496.6 hPa East 0.8 km/h 5.1 km/h 92 % 0 mm
09:21 -8.1 °C -8.9 °C 34496.6 hPa ENE 0.8 km/h 5.1 km/h 91 % 0 mm
09:26 -7.8 °C -8.7 °C 34496.6 hPa ENE 0.8 km/h 8 km/h 91 % 0 mm
09:31 -7.7 °C -8.7 °C 34496.6 hPa ENE 3.4 km/h 8 km/h 89 % 0 mm
09:36 -7.4 °C -8.4 °C 34496.6 hPa NE 4.3 km/h 11.1 km/h 89 % 0 mm
09:41 -7.3 °C -8.6 °C 34496.6 hPa NE 4.7 km/h 11.1 km/h 87 % 0 mm
09:46 -7.2 °C -8.7 °C 34496.6 hPa NE 5.1 km/h 11.1 km/h 85 % 0 mm
09:51 -7 °C -8.4 °C 34496.6 hPa ENE 2.3 km/h 6.9 km/h 85 % 0 mm
09:56 -6.8 °C -8.3 °C 34496.6 hPa ESE 0.8 km/h 5.6 km/h 84 % 0 mm
10:01 -6.6 °C -8.4 °C 34496.6 hPa ESE 1.6 km/h 7.6 km/h 82 % 0 mm
10:06 -6.4 °C -8.2 °C 34496.6 hPa ESE 3.4 km/h 9.3 km/h 82 % 0 mm
10:11 -6.2 °C -8.2 °C 34496.6 hPa ESE 4.7 km/h 11.1 km/h 80 % 0 mm
10:16 -6.1 °C -8.3 °C 34496.6 hPa ESE 3.9 km/h 11.1 km/h 78 % 0 mm
10:21 -6.1 °C -8.3 °C 34496.6 hPa SW 1.6 km/h 6.4 km/h 78 % 0 mm
10:26 -5.9 °C -8.4 °C 34496.6 hPa SW 1.3 km/h 6.4 km/h 76 % 0 mm
10:31 -5.8 °C -8.2 °C 34496.6 hPa South 2.6 km/h 8 km/h 76 % 0 mm
10:36 -5.7 °C -8.4 °C 34496.6 hPa South 4.2 km/h 8 km/h 74 % 0 mm
10:41 -5.6 °C -8.6 °C 34496.6 hPa South 2.6 km/h 7.6 km/h 71 % 0 mm
10:46 -5.5 °C -8.7 °C 34533.8 hPa SSW 2.6 km/h 8.9 km/h 70 % 0 mm
10:51 -5.4 °C -8.7 °C 34533.8 hPa SW 4.7 km/h 8.9 km/h 70 % 0 mm
10:56 -5.3 °C -8.4 °C 34533.8 hPa SSW 5.1 km/h 9.8 km/h 70 % 0 mm
11:01 -5.3 °C -9.1 °C 34533.8 hPa ESE 5 km/h 9.8 km/h 65 % 0 mm
11:06 -5.2 °C -8.9 °C 34533.8 hPa East 6 km/h 14.5 km/h 66 % 0 mm
11:11 -5 °C -8.8 °C 34533.8 hPa ESE 3.4 km/h 14.5 km/h 65 % 0 mm
11:16 -5.1 °C -9.3 °C 34533.8 hPa NE 1.6 km/h 9.3 km/h 62 % 0 mm
11:21 -5.1 °C -9.3 °C 34533.8 hPa NE 4.3 km/h 11.1 km/h 62 % 0 mm
11:26 -4.9 °C -9.3 °C 34533.8 hPa ENE 6.4 km/h 12.7 km/h 61 % 0 mm
11:31 -4.8 °C -9.2 °C 34533.8 hPa East 6.4 km/h 12.7 km/h 61 % 0 mm
11:36 -4.8 °C -9.5 °C 34533.8 hPa East 6 km/h 12.7 km/h 59 % 0 mm
11:41 -4.7 °C -9.2 °C 34533.8 hPa South 6.4 km/h 12.7 km/h 60 % 0 mm
11:46 -4.7 °C -9.6 °C 34496.6 hPa WSW 6.8 km/h 12.7 km/h 58 % 0 mm
11:51 -4.8 °C -10.1 °C 34496.6 hPa NNE 6.8 km/h 12.7 km/h 55 % 0 mm
11:56 -4.8 °C -9.8 °C 34496.6 hPa NNE 6.4 km/h 12.2 km/h 57 % 0 mm
12:01 -4.7 °C -9.8 °C 34533.8 hPa East 4.2 km/h 14 km/h 56 % 0 mm
12:06 -4.4 °C -9.5 °C 34533.8 hPa SSE 6 km/h 15.6 km/h 57 % 0 mm
12:11 -4.3 °C -9.3 °C 34533.8 hPa South 8.5 km/h 15.6 km/h 57 % 0 mm
12:16 -4.3 °C -9.9 °C 34533.8 hPa SE 6.9 km/h 14.5 km/h 53 % 0 mm
12:21 -4.1 °C -9.5 °C 34533.8 hPa SE 5.6 km/h 14.5 km/h 55 % 0 mm
12:26 -4 °C -9.6 °C 34533.8 hPa SSE 7.2 km/h 14.5 km/h 54 % 0 mm
12:31 -4 °C -9.7 °C 34533.8 hPa South 6.9 km/h 11.6 km/h 53 % 0 mm
12:33 -4 °C -9.7 °C 34533.8 hPa South 6.9 km/h 11.6 km/h 53 % 0 mm
12:38 -3.9 °C -9.8 °C 34533.8 hPa South 6.8 km/h 19.6 km/h 52 % 0 mm
12:43 -3.8 °C -9.6 °C 34533.8 hPa SSE 7.2 km/h 19.6 km/h 52 % 0 mm
12:48 -3.7 °C -9.9 °C 34533.8 hPa South 8 km/h 16.9 km/h 50 % 0 mm
12:53 -3.6 °C -9.8 °C 34533.8 hPa SSE 9.3 km/h 16.9 km/h 50 % 0 mm
12:58 -3.5 °C -9.6 °C 34533.8 hPa SE 7.6 km/h 16.3 km/h 51 % 0 mm
13:03 -3.4 °C -9.7 °C 34496.6 hPa SW 5.6 km/h 12.2 km/h 50 % 0 mm
13:08 -3.4 °C -9.8 °C 34496.6 hPa SW 7.6 km/h 16.3 km/h 49 % 0 mm
13:13 -3.3 °C -9.9 °C 34496.6 hPa WSW 5.5 km/h 16.3 km/h 48 % 0 mm
13:18 -3.3 °C -10.1 °C 34533.8 hPa East 6.3 km/h 15.6 km/h 47 % 0 mm
13:23 -3.3 °C -10.2 °C 34533.8 hPa ENE 9.3 km/h 15.6 km/h 46 % 0 mm
13:28 -3.2 °C -10.2 °C 34533.8 hPa ESE 8.2 km/h 22.5 km/h 46 % 0 mm
13:33 -3.1 °C -9.9 °C 34533.8 hPa SSE 6.4 km/h 22.5 km/h 47 % 0 mm
13:38 -2.9 °C -9.8 °C 34533.8 hPa SSE 5 km/h 11.1 km/h 47 % 0 mm
13:43 -2.9 °C -9.9 °C 34533.8 hPa SW 9.3 km/h 19.2 km/h 46 % 0 mm
13:48 -3.4 °C -10.5 °C 34533.8 hPa SW 10.6 km/h 19.2 km/h 45 % 0 mm
13:53 -3.6 °C -10.7 °C 34533.8 hPa ESE 7.2 km/h 14.5 km/h 45 % 0 mm
13:58 -3.7 °C -10.8 °C 34533.8 hPa East 3.7 km/h 11.1 km/h 45 % 0 mm
14:03 -3.8 °C -11.1 °C 34496.6 hPa WNW 2.6 km/h 8 km/h 44 % 0 mm
14:08 -3.9 °C -11.2 °C 34496.6 hPa NW 3.4 km/h 8 km/h 44 % 0 mm
14:13 -3.8 °C -10.9 °C 34496.6 hPa West 3.4 km/h 9.3 km/h 45 % 0 mm
14:18 -4 °C -10.7 °C 34496.6 hPa West 5.1 km/h 16.3 km/h 47 % 0 mm
14:23 -4.3 °C -10.8 °C 34496.6 hPa North 6.8 km/h 16.3 km/h 48 % 0 mm
14:28 -4.6 °C -11.3 °C 34496.6 hPa North 7.6 km/h 14.5 km/h 47 % 0 mm
14:33 -4.7 °C -10.9 °C 34533.8 hPa NNW 7.6 km/h 14.5 km/h 49 % 0 mm
14:38 -4.7 °C -11 °C 34533.8 hPa NNE 6 km/h 9.8 km/h 49 % 0 mm
14:43 -4.8 °C -10.8 °C 34533.8 hPa North 3.1 km/h 9.8 km/h 51 % 7.62 mm
14:46 -4.9 °C -10.7 °C 34533.8 hPa NNE 3.9 km/h 9.8 km/h 52 % 7.62 mm
14:51 -4.8 °C -9.9 °C 34533.8 hPa NE 3.9 km/h 7.6 km/h 56 % 7.62 mm
14:56 -4.7 °C -9.4 °C 34533.8 hPa ENE 4.3 km/h 9.8 km/h 59 % 7.62 mm
15:01 -4.3 °C -9.3 °C 34496.6 hPa ENE 6 km/h 11.1 km/h 57 % 7.62 mm
15:06 -4 °C -9.3 °C 34496.6 hPa East 6.8 km/h 15.6 km/h 55 % 7.62 mm
15:11 -3.8 °C -9.6 °C 34496.6 hPa East 6.9 km/h 15.6 km/h 53 % 7.62 mm
15:16 -3.6 °C -9.8 °C 34533.8 hPa ENE 9.3 km/h 19.6 km/h 50 % 7.62 mm
15:21 -3.5 °C -10.1 °C 34533.8 hPa East 10.3 km/h 19.6 km/h 48 % 7.62 mm
15:26 -3.4 °C -9.9 °C 34533.8 hPa East 9 km/h 16.3 km/h 48 % 7.62 mm
15:31 -3.4 °C -10.3 °C 34496.6 hPa ENE 9.8 km/h 16.9 km/h 46 % 7.62 mm
15:36 -3.4 °C -10.4 °C 34496.6 hPa ENE 9.3 km/h 16.9 km/h 46 % 7.62 mm
15:41 -3.6 °C -10.5 °C 34496.6 hPa East 8.2 km/h 16.9 km/h 46 % 7.62 mm
15:46 -3.8 °C -10.7 °C 34496.6 hPa East 6.4 km/h 14 km/h 46 % 0 mm
15:51 -4 °C -10.7 °C 34496.6 hPa ENE 4.3 km/h 10.3 km/h 47 % 0 mm
15:56 -4.2 °C -10.9 °C 34496.6 hPa ENE 3.9 km/h 10.3 km/h 47 % 0 mm
16:01 -4.3 °C -10.9 °C 34496.6 hPa SE 2.6 km/h 7.6 km/h 47 % 0 mm
16:06 -4.4 °C -10.8 °C 34496.6 hPa SE 0.8 km/h 7.6 km/h 49 % 0 mm
16:11 -4.6 °C -10.2 °C 34496.6 hPa ESE 1.3 km/h 7.6 km/h 53 % 0 mm
16:16 -4.8 °C -9.9 °C 34496.6 hPa NNW 1 km/h 3.4 km/h 56 % 0 mm
16:21 -5 °C -9.6 °C 34496.6 hPa NW 0.3 km/h 3.4 km/h 60 % 0 mm
16:26 -5.2 °C -9.6 °C 34496.6 hPa Calm   5.6 km/h 61 % 0 mm
16:31 -5.4 °C -9.5 °C 34496.6 hPa North 0.5 km/h 6.4 km/h 63 % 0 mm
16:36 -5.6 °C -9.4 °C 34496.6 hPa NNW 0.5 km/h 6.4 km/h 65 % 0 mm
16:37 -5.6 °C -9.4 °C 34496.6 hPa NNW 0.5 km/h 6.4 km/h 65 % 0 mm
16:42 -5.8 °C -9.8 °C 34496.6 hPa SE 0.3 km/h 5.1 km/h 63 % 0 mm
16:47 -5.9 °C -9.9 °C 34496.6 hPa North 1.8 km/h 10.3 km/h 63 % 0 mm
16:52 -5.9 °C -9.7 °C 34496.6 hPa North 1.8 km/h 10.3 km/h 65 % 0 mm
16:57 -5.8 °C -9.8 °C 34496.6 hPa North 0.8 km/h 5.1 km/h 64 % 0 mm
17:02 -5.5 °C -9.2 °C 34496.6 hPa West 0.8 km/h 5.6 km/h 66 % 0 mm
17:07 -5.2 °C -9.1 °C 34496.6 hPa WSW 2.3 km/h 7.6 km/h 64 % 0 mm
17:12 -4.9 °C -9.2 °C 34496.6 hPa WSW 2.1 km/h 7.6 km/h 62 % 0 mm
17:17 -4.6 °C -9.3 °C 34496.6 hPa WSW 0.3 km/h 4.2 km/h 59 % 0 mm
17:22 -4.6 °C -9.4 °C 34496.6 hPa NE 0.5 km/h 12.7 km/h 58 % 0 mm
17:27 -4.6 °C -9.9 °C 34496.6 hPa NE 1.8 km/h 12.7 km/h 55 % 0 mm
17:32 -4.7 °C -9.9 °C 34533.8 hPa ENE 5.6 km/h 12.7 km/h 55 % 0 mm
17:37 -4.7 °C -9.9 °C 34533.8 hPa East 3.7 km/h 8.9 km/h 55 % 0 mm
17:42 -4.8 °C -9.9 °C 34533.8 hPa South 4.2 km/h 8.9 km/h 56 % 0 mm
17:47 -4.9 °C -10.1 °C 34533.8 hPa South 6.8 km/h 14.5 km/h 56 % 0 mm
17:52 -4.9 °C -10.2 °C 34533.8 hPa SSE 5.6 km/h 14.5 km/h 55 % 0 mm
17:57 -5.1 °C -10.5 °C 34533.8 hPa ESE 6.4 km/h 14.5 km/h 54 % 0 mm
18:02 -5.2 °C -10.7 °C 34533.8 hPa ESE 6.9 km/h 9.3 km/h 54 % 0 mm
18:07 -5.3 °C -10.9 °C 34533.8 hPa ESE 6.8 km/h 9.3 km/h 53 % 0 mm
18:12 -5.4 °C -10.9 °C 34533.8 hPa ESE 7.6 km/h 9.3 km/h 54 % 0 mm
18:17 -5.6 °C -10.7 °C 34496.6 hPa ESE 7.6 km/h 9.3 km/h 56 % 0 mm
18:22 -5.8 °C -10.7 °C 34496.6 hPa SE 3.9 km/h 9.3 km/h 57 % 0 mm
18:27 -5.9 °C -10.1 °C 34496.6 hPa Calm   3.4 km/h 62 % 0 mm
18:32 -6.1 °C -10.2 °C 34533.8 hPa Calm   3.4 km/h 62 % 0 mm
18:37 -6.2 °C -10.2 °C 34533.8 hPa Calm   3.4 km/h 64 % 0 mm
18:42 -6.3 °C -10.2 °C 34533.8 hPa Calm   3.4 km/h 64 % 0 mm
18:47 -6.5 °C -10.3 °C 34533.8 hPa Calm   3.4 km/h 65 % 0 mm
18:52 -6.6 °C -10.4 °C 34533.8 hPa North 2.9 km/h   65 % 0 mm
18:57 -6.7 °C -10.1 °C 34533.8 hPa North 2.9 km/h   68 % 0 mm
19:02 -6.8 °C -10.1 °C 34533.8 hPa SW 2.9 km/h 3.4 km/h 69 % 0 mm
19:07 -6.8 °C -10.1 °C 34533.8 hPa SW 3.9 km/h 3.9 km/h 69 % 0 mm
19:12 -6.9 °C -10.2 °C 34533.8 hPa WSW 5.5 km/h 6.9 km/h 69 % 0 mm
19:17 -7 °C -10.1 °C 34496.6 hPa WSW 5.6 km/h 6.9 km/h 70 % 0 mm
19:23 -7.1 °C -10.1 °C 34496.6 hPa WSW 5.6 km/h 6.9 km/h 71 % 0 mm
19:28 -7.2 °C -10.1 °C 34496.6 hPa WSW 5.6 km/h 6.9 km/h 72 % 0 mm
19:33 -7.2 °C -10.1 °C 34533.8 hPa WSW 5.6 km/h 6.9 km/h 72 % 0 mm
19:38 -7.3 °C -10.2 °C 34533.8 hPa West 2.9 km/h 15 km/h 72 % 0 mm
19:43 -7.2 °C -10.1 °C 34533.8 hPa West 4.7 km/h 15 km/h 72 % 0 mm
19:48 -7.2 °C -9.9 °C 34567.7 hPa West 5.1 km/h 15 km/h 73 % 0 mm
19:53 -7.3 °C -9.8 °C 34567.7 hPa West 1.8 km/h 8 km/h 75 % 0 mm
19:58 -7.2 °C -10.1 °C 34567.7 hPa West 2.1 km/h 14.5 km/h 72 % 0 mm
20:03 -7.2 °C -10.2 °C 34567.7 hPa West 4.7 km/h 14.5 km/h 71 % 0 mm
20:08 -7.2 °C -10.3 °C 34567.7 hPa North 5.1 km/h   70 % 0 mm
20:13 -7.2 °C -10.4 °C 34567.7 hPa North 5.1 km/h   69 % 0 mm
20:18 -7.2 °C -10.7 °C 34567.7 hPa North 6.9 km/h 10.3 km/h 67 % 0 mm
20:23 -7.3 °C -10.6 °C 34567.7 hPa West 5 km/h 10.3 km/h 68 % 0 mm
20:25 -7.3 °C -10.7 °C 34567.7 hPa West 4.3 km/h 9.3 km/h 68 % 0 mm
20:30 -7.4 °C -10.7 °C 34567.7 hPa WSW 4.2 km/h 9.3 km/h 68 % 0 mm
20:35 -7.4 °C -10.9 °C 34567.7 hPa WSW 3.9 km/h 9.3 km/h 67 % 0 mm
20:40 -7.6 °C -10.9 °C 34567.7 hPa Calm     68 % 0 mm
20:46 -7.6 °C -11.1 °C 34601.5 hPa West 1 km/h 4.2 km/h 67 % 0 mm
20:51 -7.7 °C -11.3 °C 34601.5 hPa SSW 1.3 km/h 7.6 km/h 66 % 0 mm
20:56 -7.7 °C -11.2 °C 34601.5 hPa SW 2.3 km/h 8 km/h 67 % 0 mm
20:57 -7.8 °C -11.2 °C 34601.5 hPa SW 3.1 km/h 8.9 km/h 67 % 0 mm
21:02 -7.8 °C -11.2 °C 34567.7 hPa SW 6.3 km/h 9.8 km/h 68 % 0 mm
21:07 -7.9 °C -11 °C 34567.7 hPa SW 4.3 km/h 9.8 km/h 70 % 0 mm
21:12 -8.1 °C -10.9 °C 34567.7 hPa SW 2.1 km/h 6.4 km/h 72 % 0 mm
21:17 -8.2 °C -11 °C 34567.7 hPa SW 2.3 km/h 6.4 km/h 72 % 0 mm
21:22 -8.3 °C -10.9 °C 34567.7 hPa SW 1.3 km/h 6.4 km/h 74 % 0 mm
21:27 -8.4 °C -10.7 °C 34567.7 hPa SSE 2.6 km/h 9.8 km/h 76 % 0 mm
21:32 -8.4 °C -10.7 °C 34567.7 hPa SE 4.3 km/h 9.8 km/h 77 % 0 mm
21:37 -8.5 °C -10.7 °C 34567.7 hPa ESE 2.9 km/h 8 km/h 77 % 0 mm
21:42 -8.6 °C -10.7 °C 34567.7 hPa East 0.8 km/h 4.2 km/h 78 % 0 mm
21:47 -8.6 °C -10.7 °C 34601.5 hPa Calm     79 % 0 mm
21:52 -8.7 °C -10.7 °C 34601.5 hPa Calm     79 % 0 mm
21:57 -8.7 °C -10.7 °C 34601.5 hPa SSW 0.3 km/h 5.1 km/h 80 % 0 mm
22:02 -8.8 °C -10.7 °C 34601.5 hPa SW 5.1 km/h 14 km/h 80 % 0 mm
22:07 -8.9 °C -10.8 °C 34601.5 hPa SW 8 km/h 14 km/h 80 % 0 mm
22:12 -8.9 °C -10.7 °C 34601.5 hPa SW 6 km/h 12.7 km/h 81 % 0 mm
22:17 -8.9 °C -10.7 °C 34601.5 hPa SW 8 km/h 16.3 km/h 82 % 0 mm
22:23 -9 °C -10.7 °C 34601.5 hPa SW 8 km/h 16.3 km/h 82 % 0 mm
22:28 -9 °C -10.7 °C 34601.5 hPa SSW 4.7 km/h 11.1 km/h 82 % 0 mm
22:33 -9 °C -10.7 °C 34601.5 hPa South 4.7 km/h 11.1 km/h 82 % 0 mm
22:37 -9.1 °C -10.7 °C 34601.5 hPa South 5 km/h 8 km/h 83 % 0 mm
22:43 -9.1 °C -10.7 °C 34601.5 hPa SSE 4.3 km/h 10.3 km/h 83 % 0 mm
22:48 -9.1 °C -10.7 °C 34601.5 hPa SSE 3.7 km/h 10.3 km/h 83 % 0 mm
22:53 -9.1 °C -10.7 °C 34601.5 hPa SSE 1.8 km/h 10.3 km/h 83 % 0 mm
22:58 -9.2 °C -10.7 °C 34601.5 hPa Calm     84 % 0 mm
23:03 -9.2 °C -10.7 °C 34567.7 hPa WNW 1.6 km/h 7.6 km/h 84 % 0 mm
23:08 -9.2 °C -10.6 °C 34567.7 hPa West 2.1 km/h 7.6 km/h 85 % 0 mm
23:13 -9.3 °C -10.7 °C 34567.7 hPa SW 0.5 km/h 5.6 km/h 85 % 0 mm
23:18 -9.3 °C -10.7 °C 34567.7 hPa Calm   2.9 km/h 85 % 0 mm
23:23 -9.4 °C -10.7 °C 34567.7 hPa NNE 0.5 km/h 6.9 km/h 86 % 0 mm
23:28 -9.4 °C -10.7 °C 34567.7 hPa West 0.8 km/h 6.9 km/h 86 % 0 mm
23:33 -9.4 °C -10.7 °C 34567.7 hPa SSW 2.9 km/h 7.6 km/h 87 % 0 mm
23:38 -9.5 °C -10.7 °C 34567.7 hPa SSW 4.3 km/h 7.6 km/h 87 % 0 mm
23:43 -9.5 °C -10.6 °C 34567.7 hPa WSW 1.8 km/h 6.9 km/h 88 % 0 mm
23:48 -9.5 °C -10.6 °C 34567.7 hPa SW 0.5 km/h 8 km/h 88 % 0 mm
23:53 -9.5 °C -10.6 °C 34567.7 hPa SW 4.3 km/h 10.3 km/h 88 % 0 mm
23:58 -9.5 °C -10.5 °C 34567.7 hPa SW 5.6 km/h 10.3 km/h 89 % 0 mm
Vremenska postaja Senovo
Podatki zbrani iz Weather Underground - 3 mb

Script developed by  Jim McMurry - jmcmurry@mwt.net Adapted for the template by  Wim van der Kuil - Leuven-Template.eu

Vremenski podatki so objavljeni na:

European Weather Network

WeatherCloud

Weather Underground

AWEKAS

HAMweather, WeatherForYou, PWS Weather

MapView

Geostik

Slovenia weather network

Oprema, ki se uporablja:

Vremenski program
Cumulus

Vremenski server
Asus

Cumulus

Asus